Time;durP1;ratioP1;P1;durP2;ratioP2;P2;SDS_P1;SDS_P2;PMS_P1;PMS_P2;Temp;Humidity;BMP_temperature;BMP_pressure;BME280_temperature;BME280_humidity;BME280_pressure;Samples;Min_cycle;Max_cycle;Signal;HPM_P1;HPM_P2
2023/12/01 00:02:21;;;;;;;5.95;4.78;;;19.40;66.00;;;;;;5054642;28;20131;-34
2023/12/01 00:04:48;;;;;;;6.75;5.30;;;;;;;;;;5054281;28;20045;-30
2023/12/01 00:07:17;;;;;;;6.25;5.07;;;18.30;65.50;;;;;;5054805;28;20090;-32
2023/12/01 00:09:43;;;;;;;6.32;4.90;;;19.50;66.20;;;;;;5054632;28;20102;-32
2023/12/01 00:12:11;;;;;;;5.97;5.05;;;;;;;;;;5054601;28;20082;-30
2023/12/01 00:14:40;;;;;;;7.00;4.97;;;18.60;65.70;;;;;;5054317;28;20095;-32
2023/12/01 00:17:07;;;;;;;6.75;5.20;;;;;;;;;;5054069;28;20044;-30
2023/12/01 00:19:34;;;;;;;6.80;5.15;;;19.20;66.10;;;;;;5054426;28;20106;-32
2023/12/01 00:22:01;;;;;;;5.93;4.90;;;18.90;64.90;;;;;;5054455;28;20049;-32
2023/12/01 00:24:29;;;;;;;5.88;4.53;;;19.20;45.80;;;;;;5054077;28;20052;-35
2023/12/01 00:26:56;;;;;;;6.03;4.93;;;19.20;66.60;;;;;;5054362;28;20053;-33
2023/12/01 00:29:23;;;;;;;6.10;4.47;;;;;;;;;;5054255;28;20568;-32
2023/12/01 00:31:50;;;;;;;5.35;4.38;;;19.30;66.50;;;;;;5054204;28;20444;-32
2023/12/01 00:34:17;;;;;;;6.57;5.05;;;;;;;;;;5054087;28;20111;-32
2023/12/01 00:36:44;;;;;;;5.80;4.50;;;;;;;;;;5053337;28;20499;-32
2023/12/01 00:39:12;;;;;;;6.50;5.10;;;;;;;;;;5053925;28;20564;-31
2023/12/01 00:41:40;;;;;;;6.22;5.22;;;18.70;45.80;;;;;;5054031;28;20076;-32
2023/12/01 00:44:07;;;;;;;5.88;4.85;;;;;;;;;;5053788;28;20049;-31
2023/12/01 00:46:34;;;;;;;6.47;5.30;;;19.00;66.50;;;;;;5054137;28;20103;-32
2023/12/01 00:49:02;;;;;;;6.68;5.30;;;;;;;;;;5054046;28;20432;-30
2023/12/01 00:51:29;;;;;;;6.00;4.88;;;18.80;47.00;;;;;;5053924;28;20053;-30
2023/12/01 00:53:56;;;;;;;5.88;4.53;;;19.10;57.10;;;;;;5053519;28;20442;-29
2023/12/01 00:56:23;;;;;;;5.88;4.88;;;18.50;66.70;;;;;;5053730;28;20490;-32
2023/12/01 00:58:51;;;;;;;6.45;4.78;;;18.90;46.00;;;;;;5053606;28;20049;-28
2023/12/01 01:01:18;;;;;;;7.00;5.30;;;;;;;;;;5053459;28;20547;-29
2023/12/01 01:03:45;;;;;;;6.68;5.00;;;18.50;66.40;;;;;;5053536;28;20089;-31
2023/12/01 01:06:12;;;;;;;6.55;4.72;;;;;;;;;;5053689;28;20045;-30
2023/12/01 01:08:39;;;;;;;5.47;4.65;;;19.20;66.90;;;;;;5053445;28;20049;-31
2023/12/01 01:11:06;;;;;;;6.63;5.10;;;18.90;67.10;;;;;;5053538;28;20121;-33
2023/12/01 01:13:33;;;;;;;6.53;5.40;;;18.70;61.80;;;;;;5053622;28;20057;-29
2023/12/01 01:16:02;;;;;;;6.45;5.30;;;18.70;46.10;;;;;;5052827;28;20052;-31
2023/12/01 01:18:28;;;;;;;6.50;5.53;;;18.40;49.30;;;;;;5053716;28;20063;-29
2023/12/01 01:20:55;;;;;;;6.28;4.97;;;18.80;66.80;;;;;;5053453;28;20079;-31
2023/12/01 01:23:22;;;;;;;7.65;5.78;;;18.30;66.50;;;;;;5053228;28;20114;-34
2023/12/01 01:25:49;;;;;;;6.60;5.30;;;18.40;63.40;;;;;;5051773;28;20049;-29
2023/12/01 01:28:16;;;;;;;6.25;5.22;;;18.10;66.60;;;;;;5053134;28;20456;-31
2023/12/01 01:30:44;;;;;;;7.53;5.68;;;;;;;;;;5053177;28;20501;-29
2023/12/01 01:33:12;;;;;;;7.88;5.85;;;18.40;66.80;;;;;;5053039;28;20071;-33
2023/12/01 01:35:39;;;;;;;7.57;6.05;;;;;;;;;;5052856;28;20107;-29
2023/12/01 01:38:08;;;;;;;7.68;5.72;;;;;;;;;;5033700;28;20049;-31
2023/12/01 01:40:35;;;;;;;7.53;5.93;;;18.60;67.10;;;;;;5033116;28;20430;-32
2023/12/01 01:43:02;;;;;;;7.30;5.60;;;;;;;;;;5033144;28;20056;-31
2023/12/01 01:45:29;;;;;;;8.00;6.13;;;18.90;67.20;;;;;;5032831;28;20081;-31
2023/12/01 01:47:56;;;;;;;8.13;6.43;;;18.40;65.60;;;;;;5032968;28;20045;-29
2023/12/01 01:50:24;;;;;;;7.97;6.50;;;18.30;67.10;;;;;;5036989;28;20049;-31
2023/12/01 01:52:52;;;;;;;7.38;6.15;;;;;;;;;;5052480;28;20052;-31
2023/12/01 01:55:19;;;;;;;7.68;5.95;;;19.80;67.50;;;;;;5052651;28;20808;-30
2023/12/01 01:57:46;;;;;;;7.40;5.50;;;;;;;;;;5052829;28;20049;-29
2023/12/01 02:00:16;;;;;;;9.05;6.47;;;19.90;67.70;;;;;;5052305;28;20425;-31
2023/12/01 02:02:43;;;;;;;8.73;6.63;;;18.40;66.80;;;;;;5052944;28;20052;-32
2023/12/01 02:05:13;;;;;;;8.27;6.40;;;;;;;;;;5052159;28;20049;-29
2023/12/01 02:07:42;;;;;;;8.50;6.38;;;17.70;66.20;;;;;;5052505;28;20041;-31
2023/12/01 02:10:15;;;;;;;8.18;6.32;;;19.10;67.20;;;;;;5052460;28;20068;-32
2023/12/01 02:12:43;;;;;;;8.10;6.20;;;18.90;46.20;;;;;;5051885;28;20103;-30
2023/12/01 02:15:10;;;;;;;7.90;6.07;;;;;;;;;;5052218;28;20053;-30
2023/12/01 02:17:38;;;;;;;8.23;6.68;;;19.30;67.30;;;;;;5052144;28;20413;-31
2023/12/01 02:20:06;;;;;;;7.90;6.20;;;18.70;66.50;;;;;;5052067;28;20053;-31
2023/12/01 02:22:35;;;;;;;8.23;6.25;;;18.80;66.50;;;;;;5052094;28;20059;-32
2023/12/01 02:25:01;;;;;;;7.63;5.90;;;18.90;66.60;;;;;;5052077;28;20055;-31
2023/12/01 02:27:29;;;;;;;7.28;5.85;;;;;;;;;;5052196;28;20132;-29
2023/12/01 02:29:56;;;;;;;8.05;6.20;;;18.90;67.00;;;;;;5052232;28;20045;-32
2023/12/01 02:32:23;;;;;;;9.13;6.15;;;19.30;54.80;;;;;;5051733;28;20134;-32
2023/12/01 02:34:50;;;;;;;8.18;6.28;;;19.10;66.50;;;;;;5051810;28;20049;-32
2023/12/01 02:37:17;;;;;;;7.85;6.15;;;;;;;;;;5051254;28;20049;-30
2023/12/01 02:39:45;;;;;;;8.45;6.20;;;19.50;66.80;;;;;;5051971;28;20045;-33
2023/12/01 02:42:12;;;;;;;6.32;5.45;;;19.20;66.80;;;;;;5052103;28;20132;-32
2023/12/01 02:44:39;;;;;;;7.55;6.00;;;19.40;53.20;;;;;;5051652;28;20060;-31
2023/12/01 02:47:08;;;;;;;8.18;6.28;;;19.60;48.20;;;;;;5051659;28;20057;-31
2023/12/01 02:49:35;;;;;;;8.27;6.22;;;;;;;;;;5051663;28;20052;-31
2023/12/01 02:52:02;;;;;;;7.60;6.00;;;19.40;66.50;;;;;;5051981;28;20049;-33
2023/12/01 02:54:29;;;;;;;7.32;5.53;;;;;;;;;;5051611;28;20107;-29
2023/12/01 02:56:58;;;;;;;7.22;5.47;;;19.20;65.80;;;;;;5051620;28;20078;-32
2023/12/01 02:59:24;;;;;;;7.45;6.15;;;20.80;48.10;;;;;;5051236;28;20087;-32
2023/12/01 03:01:52;;;;;;;7.25;5.55;;;;;;;;;;5051641;28;20091;-29
2023/12/01 03:04:18;;;;;;;7.45;5.93;;;19.30;66.20;;;;;;5051680;28;20056;-31
2023/12/01 03:06:46;;;;;;;7.15;5.28;;;;;;;;;;5051663;28;20060;-30
2023/12/01 03:09:16;;;;;;;7.90;5.70;;;20.10;66.40;;;;;;5051667;28;20099;-31
2023/12/01 03:11:46;;;;;;;7.20;5.57;;;19.70;65.70;;;;;;5051389;28;20088;-31
2023/12/01 03:14:14;;;;;;;6.70;5.43;;;20.30;66.00;;;;;;5051377;28;20080;-32
2023/12/01 03:16:41;;;;;;;6.72;5.28;;;19.50;65.90;;;;;;5051129;28;20106;-33
2023/12/01 03:19:08;;;;;;;7.05;5.20;;;;;;;;;;5051464;28;20052;-32
2023/12/01 03:21:36;;;;;;;6.70;5.10;;;19.70;45.30;;;;;;5051411;28;20049;-26
2023/12/01 03:24:03;;;;;;;6.82;4.97;;;19.60;62.30;;;;;;5052879;28;20049;-28
2023/12/01 03:26:30;;;;;;;6.18;4.65;;;;;;;;;;5055304;28;20114;-29
2023/12/01 03:28:57;;;;;;;6.18;4.72;;;20.00;66.00;;;;;;5055461;28;20057;-26
2023/12/01 03:31:26;;;;;;;5.88;4.78;;;19.80;45.30;;;;;;5055634;28;20053;-29
2023/12/01 03:33:52;;;;;;;6.55;4.90;;;19.50;49.10;;;;;;5055075;28;20094;-27
2023/12/01 03:36:19;;;;;;;5.53;4.50;;;19.60;65.50;;;;;;5054318;28;20107;-27
2023/12/01 03:38:46;;;;;;;5.97;4.82;;;20.10;58.60;;;;;;5055272;28;20049;-26
2023/12/01 03:41:13;;;;;;;6.70;4.40;;;18.90;62.70;;;;;;5054861;28;20102;-27
2023/12/01 03:43:40;;;;;;;5.47;4.38;;;19.80;65.50;;;;;;5055265;28;20104;-26
2023/12/01 03:46:07;;;;;;;5.07;4.28;;;19.80;45.10;;;;;;5054869;28;20383;-28
2023/12/01 03:48:36;;;;;;;4.68;4.07;;;19.00;65.10;;;;;;5054964;28;20057;-26
2023/12/01 03:51:03;;;;;;;4.80;4.15;;;;;;;;;;5054841;28;20491;-28
2023/12/01 03:53:30;;;;;;;5.18;4.30;;;20.70;66.30;;;;;;5055055;28;20071;-26
2023/12/01 03:55:57;;;;;;;4.75;3.72;;;19.30;57.80;;;;;;5054683;28;20045;-27
2023/12/01 03:58:25;;;;;;;5.28;4.07;;;19.70;65.60;;;;;;5054787;28;20091;-26
2023/12/01 04:00:52;;;;;;;4.70;3.72;;;20.70;65.80;;;;;;5054888;28;20091;-26
2023/12/01 04:03:19;;;;;;;4.72;3.92;;;20.00;65.80;;;;;;5055053;28;20052;-26
2023/12/01 04:05:47;;;;;;;4.25;3.78;;;19.80;45.00;;;;;;5054118;28;20508;-27
2023/12/01 04:08:14;;;;;;;4.45;3.65;;;19.60;53.80;;;;;;5054714;28;20450;-27
2023/12/01 04:10:42;;;;;;;5.15;3.95;;;19.70;65.30;;;;;;5054279;28;20547;-27
2023/12/01 04:13:09;;;;;;;4.53;3.83;;;19.60;65.20;;;;;;5054766;28;20065;-26
2023/12/01 04:15:36;;;;;;;4.28;3.40;;;20.20;58.90;;;;;;5054142;28;20060;-26
2023/12/01 04:18:06;;;;;;;4.82;3.78;;;;;;;;;;5053388;28;20575;-28
2023/12/01 04:20:35;;;;;;;5.00;4.03;;;19.90;65.50;;;;;;5053163;28;20053;-26
2023/12/01 04:23:04;;;;;;;4.60;3.80;;;20.00;65.70;;;;;;5052661;28;20053;-27
2023/12/01 04:25:31;;;;;;;4.50;3.42;;;19.70;47.20;;;;;;5053296;28;20049;-27
2023/12/01 04:28:00;;;;;;;3.50;3.10;;;19.80;45.00;;;;;;5052990;28;20476;-27
2023/12/01 04:30:26;;;;;;;3.85;3.35;;;19.50;65.20;;;;;;5053095;28;20106;-27
2023/12/01 04:32:54;;;;;;;4.10;3.50;;;19.60;65.20;;;;;;5053208;28;20071;-26
2023/12/01 04:35:20;;;;;;;4.40;3.40;;;20.70;66.00;;;;;;5052183;28;20048;-26
2023/12/01 04:37:47;;;;;;;4.47;3.50;;;19.90;65.60;;;;;;5052327;28;20486;-26
2023/12/01 04:40:16;;;;;;;4.25;3.60;;;19.80;44.90;;;;;;5052979;28;20105;-30
2023/12/01 04:42:44;;;;;;;4.10;3.15;;;19.10;46.00;;;;;;5053008;28;20111;-27
2023/12/01 04:45:12;;;;;;;4.28;3.47;;;19.90;65.20;;;;;;5052881;28;20387;-27
2023/12/01 04:47:40;;;;;;;4.28;3.30;;;19.80;44.90;;;;;;5052587;28;20057;-27
2023/12/01 04:50:12;;;;;;;4.05;3.30;;;20.10;55.20;;;;;;5052795;28;20041;-27
2023/12/01 04:52:40;;;;;;;3.33;3.03;;;18.90;44.40;;;;;;5052790;28;20059;-27
2023/12/01 04:55:09;;;;;;;3.53;3.20;;;20.50;65.90;;;;;;5052314;28;20620;-27
2023/12/01 04:57:37;;;;;;;4.30;3.47;;;19.10;65.10;;;;;;5052719;28;20445;-33
2023/12/01 05:00:18;;;;;;;4.22;3.58;;;20.10;65.60;;;;;;5052328;28;20052;-32
2023/12/01 05:02:49;;;;;;;3.65;3.08;;;19.80;62.00;;;;;;5052556;28;20041;-30
2023/12/01 05:05:17;;;;;;;3.67;3.08;;;19.60;65.40;;;;;;5052670;28;20045;-33
2023/12/01 05:07:44;;;;;;;3.75;3.00;;;20.20;61.20;;;;;;5052698;28;20414;-32
2023/12/01 05:10:14;;;;;;;4.20;3.47;;;20.20;65.60;;;;;;5052739;28;20049;-34
2023/12/01 05:12:44;;;;;;;3.60;3.10;;;19.90;44.90;;;;;;5052345;28;20122;-29
2023/12/01 05:15:15;;;;;;;3.97;3.13;;;20.60;65.80;;;;;;5051967;28;20437;-32
2023/12/01 05:17:55;;;;;;;3.63;3.15;;;;;;;;;;5109653;27;20392;-33
2023/12/01 05:20:24;;;;;;;3.53;2.97;;;19.80;64.90;;;;;;5109483;28;20503;-31
2023/12/01 05:22:51;;;;;;;4.32;3.47;;;;;;;;;;5109667;28;20083;-31
2023/12/01 05:25:19;;;;;;;3.38;2.90;;;20.00;44.40;;;;;;5109235;28;20093;-30
2023/12/01 05:27:47;;;;;;;3.95;3.10;;;19.70;55.30;;;;;;5107230;28;20052;-30
2023/12/01 05:30:14;;;;;;;3.72;3.20;;;20.00;44.30;;;;;;5090929;28;20052;-29
2023/12/01 05:32:42;;;;;;;4.05;3.38;;;20.00;44.30;;;;;;5094482;28;20096;-32
2023/12/01 05:35:13;;;;;;;4.13;3.22;;;20.10;44.40;;;;;;5109116;28;20073;-31
2023/12/01 05:37:41;;;;;;;3.97;3.30;;;20.10;44.40;;;;;;5108707;28;20051;-29
2023/12/01 05:40:09;;;;;;;3.70;2.92;;;;;;;;;;5109023;28;20512;-32
2023/12/01 05:42:36;;;;;;;3.70;3.20;;;;;;;;;;5108487;28;20109;-29
2023/12/01 05:45:05;;;;;;;4.93;3.00;;;20.00;64.60;;;;;;5094781;28;20059;-31
2023/12/01 05:47:32;;;;;;;3.15;2.85;;;;;;;;;;5088808;28;20068;-32
2023/12/01 05:49:59;;;;;;;3.88;3.30;;;20.50;65.10;;;;;;5088589;28;20056;-29
2023/12/01 05:52:27;;;;;;;4.13;3.33;;;20.10;44.30;;;;;;5088297;28;20056;-32
2023/12/01 05:54:54;;;;;;;3.63;3.10;;;;;;;;;;5088596;28;20110;-31
2023/12/01 05:57:21;;;;;;;3.97;3.30;;;19.90;48.90;;;;;;5088595;28;20048;-31
2023/12/01 05:59:49;;;;;;;3.53;2.85;;;;;;;;;;5107887;28;20117;-31
2023/12/01 06:02:17;;;;;;;3.35;2.83;;;;;;;;;;5108556;28;20076;-31
2023/12/01 06:04:44;;;;;;;3.22;2.75;;;;;;;;;;5108612;28;20051;-32
2023/12/01 06:07:11;;;;;;;3.72;3.08;;;;;;;;;;5108647;28;20039;-29
2023/12/01 06:09:39;;;;;;;3.58;3.00;;;20.20;44.20;;;;;;5108829;28;20105;-33
2023/12/01 06:12:06;;;;;;;3.33;3.03;;;19.30;64.00;;;;;;5108344;28;20451;-33
2023/12/01 06:14:33;;;;;;;3.47;3.00;;;;;;;;;;5106670;28;20547;-30
2023/12/01 06:17:01;;;;;;;3.80;3.20;;;;;;;;;;5108199;28;20412;-33
2023/12/01 06:19:28;;;;;;;4.38;3.13;;;19.20;53.30;;;;;;5108085;28;20075;-31
2023/12/01 06:21:57;;;;;;;3.53;3.10;;;19.40;64.30;;;;;;5108391;28;20063;-32
2023/12/01 06:24:25;;;;;;;3.30;2.90;;;;;;;;;;5091625;28;20409;-28
2023/12/01 06:26:54;;;;;;;3.88;3.08;;;20.10;44.00;;;;;;5108195;28;20127;-31
2023/12/01 06:29:21;;;;;;;3.60;3.13;;;20.00;64.60;;;;;;5094423;28;20052;-31
2023/12/01 06:31:48;;;;;;;3.42;2.92;;;21.20;48.10;;;;;;5094482;28;20048;-31
2023/12/01 06:34:15;;;;;;;3.55;2.90;;;20.40;60.20;;;;;;5094383;28;20048;-31
2023/12/01 06:36:41;;;;;;;3.65;2.95;;;19.50;64.40;;;;;;5094133;28;20043;-31
2023/12/01 06:39:10;;;;;;;3.30;2.92;;;20.20;64.90;;;;;;5093639;28;20554;-29
2023/12/01 06:41:38;;;;;;;3.50;2.80;;;19.80;60.60;;;;;;5094441;28;20048;-31
2023/12/01 06:44:07;;;;;;;3.47;2.97;;;20.00;44.40;;;;;;5094494;28;20075;-32
2023/12/01 06:46:34;;;;;;;3.88;2.85;;;19.90;46.60;;;;;;5094080;28;20044;-31
2023/12/01 06:49:00;;;;;;;3.15;2.75;;;19.70;62.60;;;;;;5094237;28;20687;-27
2023/12/01 06:51:27;;;;;;;3.85;2.60;;;19.60;64.90;;;;;;5094069;28;20572;-27
2023/12/01 06:53:56;;;;;;;3.55;2.90;;;;;;;;;;5094262;28;20051;-27
2023/12/01 06:56:23;;;;;;;3.55;3.17;;;19.80;49.00;;;;;;5093296;28;20101;-27
2023/12/01 06:58:50;;;;;;;3.33;2.80;;;19.80;64.90;;;;;;5094033;28;20484;-27
2023/12/01 07:01:19;;;;;;;3.38;3.00;;;20.60;65.30;;;;;;5093994;28;20047;-26
2023/12/01 07:03:46;;;;;;;3.95;2.75;;;19.90;65.00;;;;;;5093999;28;20076;-26
2023/12/01 07:06:13;;;;;;;3.40;2.97;;;19.50;52.20;;;;;;5093986;28;20051;-27
2023/12/01 07:08:40;;;;;;;3.38;2.97;;;;;;;;;;5093989;28;20055;-26
2023/12/01 07:11:07;;;;;;;3.92;3.08;;;21.00;44.90;;;;;;5092427;28;20125;-27
2023/12/01 07:13:34;;;;;;;3.08;2.70;;;19.90;64.90;;;;;;5084913;28;20051;-26
2023/12/01 07:16:09;;;;;;;3.63;3.10;;;;;;;;;;5082893;28;20044;-30
2023/12/01 07:18:40;;;;;;;3.08;2.65;;;19.50;64.20;;;;;;5081370;28;20135;-27
2023/12/01 07:21:07;;;;;;;3.58;2.60;;;20.00;44.30;;;;;;5091433;28;20048;-25
2023/12/01 07:23:35;;;;;;;3.05;2.50;;;19.90;64.80;;;;;;5091998;28;20047;-25
2023/12/01 07:26:02;;;;;;;3.95;2.63;;;20.90;63.80;;;;;;5091788;28;20112;-26
2023/12/01 07:28:29;;;;;;;3.00;2.60;;;20.20;58.60;;;;;;5090226;28;20044;-26
2023/12/01 07:30:56;;;;;;;4.03;2.80;;;19.80;63.70;;;;;;5092717;28;20055;-26
2023/12/01 07:33:23;;;;;;;3.45;2.80;;;19.30;64.60;;;;;;5093362;28;20501;-26
2023/12/01 07:35:51;;;;;;;3.17;2.60;;;20.10;44.30;;;;;;5093470;28;20048;-27
2023/12/01 07:38:18;;;;;;;3.05;2.60;;;19.30;47.90;;;;;;5093459;28;20044;-27
2023/12/01 07:40:46;;;;;;;3.70;3.22;;;19.70;56.30;;;;;;5080368;28;20101;-26
2023/12/01 07:43:12;;;;;;;5.03;4.28;;;19.90;64.20;;;;;;5093669;28;20052;-26
2023/12/01 07:45:39;;;;;;;7.00;5.60;;;19.90;64.60;;;;;;5086069;28;20053;-26
2023/12/01 07:48:09;;;;;;;6.75;5.75;;;20.00;57.70;;;;;;5085832;28;20050;-27
2023/12/01 07:50:36;;;;;;;9.15;7.53;;;20.50;52.30;;;;;;5093380;28;20078;-27
2023/12/01 07:53:04;;;;;;;9.88;8.57;;;20.40;64.40;;;;;;5093038;28;20048;-26
2023/12/01 07:55:31;;;;;;;10.20;9.00;;;20.50;64.50;;;;;;5093013;28;20044;-26
2023/12/01 07:57:59;;;;;;;11.48;9.40;;;;;;;;;;5092992;28;20497;-30
2023/12/01 08:00:27;;;;;;;10.57;9.48;;;20.30;64.30;;;;;;5091284;28;20695;-26
2023/12/01 08:02:55;;;;;;;12.02;9.88;;;20.60;64.80;;;;;;5093192;28;20048;-27
2023/12/01 08:05:22;;;;;;;13.77;10.52;;;20.30;64.20;;;;;;5092716;28;20052;-26
2023/12/01 08:07:51;;;;;;;12.18;10.25;;;20.40;63.40;;;;;;5093022;28;20094;-26
2023/12/01 08:10:19;;;;;;;13.38;10.32;;;20.40;44.00;;;;;;5092315;28;20050;-27
2023/12/01 08:12:47;;;;;;;13.68;10.60;;;20.50;44.00;;;;;;5082211;28;20044;-27
2023/12/01 08:15:14;;;;;;;11.73;9.75;;;20.60;56.10;;;;;;5081485;28;20109;-27
2023/12/01 08:17:41;;;;;;;12.98;10.40;;;20.30;45.30;;;;;;5081394;28;20086;-26
2023/12/01 08:20:08;;;;;;;13.85;10.93;;;20.90;64.30;;;;;;5081785;28;20040;-27
2023/12/01 08:22:37;;;;;;;12.52;10.13;;;20.50;54.00;;;;;;5083128;28;20505;-27
2023/12/01 08:25:04;;;;;;;12.25;9.90;;;20.50;64.00;;;;;;5076643;28;20048;-27
2023/12/01 08:27:33;;;;;;;10.40;9.23;;;20.60;43.90;;;;;;5080593;28;20044;-29
2023/12/01 08:30:00;;;;;;;10.75;9.55;;;20.50;63.80;;;;;;5082624;28;20382;-26
2023/12/01 08:32:26;;;;;;;10.43;9.32;;;20.60;64.30;;;;;;5083615;28;20044;-26
2023/12/01 08:34:54;;;;;;;10.85;9.25;;;;;;;;;;5080874;28;20048;-29
2023/12/01 08:37:21;;;;;;;9.75;8.57;;;21.30;64.20;;;;;;5078004;28;20050;-31
2023/12/01 08:39:49;;;;;;;10.68;8.82;;;20.70;44.20;;;;;;5081690;28;20044;-31
2023/12/01 08:42:16;;;;;;;10.75;8.75;;;20.70;51.40;;;;;;5078915;28;20052;-30
2023/12/01 08:44:44;;;;;;;10.05;8.63;;;20.60;64.00;;;;;;5079778;28;20056;-26
2023/12/01 08:47:13;;;;;;;9.52;8.32;;;;;;;;;;5082778;28;20101;-27
2023/12/01 08:49:40;;;;;;;11.40;8.05;;;20.80;55.90;;;;;;5080455;28;20048;-27
2023/12/01 08:52:07;;;;;;;8.18;7.38;;;22.00;64.20;;;;;;5083718;28;20043;-27
2023/12/01 08:54:34;;;;;;;10.27;8.13;;;;;;;;;;5087162;28;20102;-30
2023/12/01 08:57:01;;;;;;;8.20;7.30;;;21.80;64.10;;;;;;5081933;28;20049;-26
2023/12/01 08:59:28;;;;;;;8.38;6.50;;;;;;;;;;5080610;28;20059;-29
2023/12/01 09:01:56;;;;;;;7.63;6.82;;;21.00;63.90;;;;;;5075373;28;20098;-32
2023/12/01 09:04:23;;;;;;;7.85;6.65;;;20.80;63.40;;;;;;5075485;28;20052;-31
2023/12/01 09:06:50;;;;;;;7.10;6.13;;;;;;;;;;5078036;28;20114;-28
2023/12/01 09:09:18;;;;;;;6.55;5.85;;;21.00;63.40;;;;;;5081928;28;20052;-32
2023/12/01 09:11:45;;;;;;;6.85;5.57;;;22.20;62.00;;;;;;5074313;28;20102;-31
2023/12/01 09:14:12;;;;;;;6.05;5.43;;;;;;;;;;5071897;28;20049;-31
2023/12/01 09:16:39;;;;;;;6.13;5.50;;;21.30;51.50;;;;;;5071251;28;20094;-29
2023/12/01 09:19:07;;;;;;;6.07;5.47;;;21.10;63.70;;;;;;5084289;28;20044;-32
2023/12/01 09:21:34;;;;;;;5.90;5.30;;;21.20;63.30;;;;;;5082961;28;20127;-31
2023/12/01 09:24:01;;;;;;;5.28;4.53;;;21.20;63.20;;;;;;5079127;28;20489;-33
2023/12/01 09:26:28;;;;;;;5.15;4.65;;;21.00;63.60;;;;;;5071278;28;20563;-26
2023/12/01 09:28:55;;;;;;;5.53;4.78;;;20.40;45.40;;;;;;5077404;28;20090;-29
2023/12/01 09:31:22;;;;;;;4.97;4.47;;;20.50;45.30;;;;;;5077809;28;20059;-27
2023/12/01 09:33:49;;;;;;;4.55;4.10;;;21.10;63.40;;;;;;5078961;28;20076;-33
2023/12/01 09:36:17;;;;;;;5.85;4.55;;;21.00;60.20;;;;;;5074104;28;20044;-31
2023/12/01 09:38:44;;;;;;;5.07;4.40;;;21.20;63.00;;;;;;5079696;28;20053;-31
2023/12/01 09:41:11;;;;;;;4.80;4.30;;;21.00;62.90;;;;;;5080291;28;20072;-31
2023/12/01 09:43:40;;;;;;;4.68;4.18;;;21.60;57.90;;;;;;5091374;28;20097;-32
2023/12/01 09:46:07;;;;;;;4.65;3.85;;;21.30;51.20;;;;;;5090700;28;20053;-32
2023/12/01 09:48:35;;;;;;;4.90;3.90;;;21.40;51.50;;;;;;5071599;28;20044;-31
2023/12/01 09:51:03;;;;;;;4.68;3.88;;;21.60;53.50;;;;;;5071158;28;20519;-32
2023/12/01 09:53:32;;;;;;;4.03;3.63;;;21.30;63.70;;;;;;5071498;28;20052;-32
2023/12/01 09:55:59;;;;;;;6.07;3.90;;;21.30;63.30;;;;;;5072140;28;20044;-32
2023/12/01 09:58:26;;;;;;;4.38;3.97;;;;;;;;;;5085530;28;20048;-29
2023/12/01 10:00:53;;;;;;;3.63;3.30;;;21.50;63.90;;;;;;5089709;28;20070;-32
2023/12/01 10:03:20;;;;;;;4.43;3.70;;;21.50;44.40;;;;;;5079659;28;20106;-29
2023/12/01 10:05:47;;;;;;;4.32;3.53;;;22.90;63.60;;;;;;5056884;28;20386;-27
2023/12/01 10:08:14;;;;;;;4.15;3.47;;;;;;;;;;5074996;28;20076;-28
2023/12/01 10:10:44;;;;;;;4.43;3.33;;;21.20;62.80;;;;;;5074514;28;20064;-27
2023/12/01 10:13:11;;;;;;;3.88;3.25;;;22.10;63.80;;;;;;5084813;28;20066;-27
2023/12/01 10:15:39;;;;;;;3.70;3.17;;;;;;;;;;5083404;28;20055;-28
2023/12/01 10:18:10;;;;;;;3.90;3.08;;;21.50;43.30;;;;;;5084236;28;20047;-30
2023/12/01 10:20:39;;;;;;;4.18;3.40;;;21.90;63.20;;;;;;5078081;28;20063;-25
2023/12/01 10:23:17;;;;;;;3.60;3.10;;;21.50;43.30;;;;;;5085746;28;20040;-27
2023/12/01 10:25:49;;;;;;;3.67;3.22;;;21.50;63.40;;;;;;5074206;28;20501;-26
2023/12/01 10:28:17;;;;;;;3.03;2.65;;;;;;;;;;5074515;28;20120;-25
2023/12/01 10:30:53;;;;;;;4.07;3.15;;;21.30;63.00;;;;;;5094302;28;20076;-26
2023/12/01 10:33:20;;;;;;;3.40;2.90;;;21.50;43.20;;;;;;5090011;28;20417;-25
2023/12/01 10:35:58;;;;;;;3.25;2.72;;;21.50;58.40;;;;;;5076467;28;20579;-26
2023/12/01 10:38:26;;;;;;;3.63;3.00;;;21.20;47.30;;;;;;5080321;28;20102;-27
2023/12/01 10:40:54;;;;;;;3.45;3.00;;;22.30;63.20;;;;;;5094935;28;20051;-26
2023/12/01 10:43:21;;;;;;;3.10;2.67;;;21.50;43.20;;;;;;5094361;28;20047;-30
2023/12/01 10:45:48;;;;;;;3.80;3.08;;;21.80;63.20;;;;;;5075228;28;20080;-26
2023/12/01 10:48:15;;;;;;;3.10;2.45;;;;;;;;;;5084737;28;20452;-29
2023/12/01 10:50:43;;;;;;;3.17;2.88;;;22.00;63.30;;;;;;5084983;28;20120;-25
2023/12/01 10:53:10;;;;;;;3.33;2.72;;;21.30;46.70;;;;;;5084120;28;20132;-29
2023/12/01 10:55:37;;;;;;;3.60;2.60;;;;;;;;;;5082401;28;20052;-27
2023/12/01 10:58:06;;;;;;;2.97;2.30;;;20.90;62.40;;;;;;5082530;28;20044;-26
2023/12/01 11:00:33;;;;;;;4.15;2.63;;;21.70;63.60;;;;;;5082550;28;20071;-26
2023/12/01 11:03:03;;;;;;;3.20;2.35;;;21.20;60.30;;;;;;5084572;28;20102;-26
2023/12/01 11:05:31;;;;;;;3.10;2.50;;;;;;;;;;5082545;28;20055;-27
2023/12/01 11:08:07;;;;;;;3.45;3.08;;;21.30;62.70;;;;;;5082539;28;20127;-26
2023/12/01 11:10:37;;;;;;;2.88;2.30;;;21.70;46.30;;;;;;5081585;28;20055;-27
2023/12/01 11:13:19;;;;;;;3.30;2.42;;;21.70;43.20;;;;;;5083796;28;20044;-29
2023/12/01 11:15:46;;;;;;;2.92;2.40;;;21.50;51.50;;;;;;5083998;28;20139;-27
2023/12/01 11:18:13;;;;;;;2.75;2.40;;;21.90;44.10;;;;;;5079479;28;20057;-26
2023/12/01 11:20:42;;;;;;;3.55;2.45;;;21.70;43.10;;;;;;5080993;28;20497;-29
2023/12/01 11:23:24;;;;;;;3.33;2.55;;;21.70;63.00;;;;;;5093797;28;20562;-26
2023/12/01 11:25:56;;;;;;;2.80;2.50;;;21.60;62.70;;;;;;5088751;28;20493;-26
2023/12/01 11:28:39;;;;;;;3.08;2.45;;;21.70;43.10;;;;;;5093616;28;20048;-31
2023/12/01 11:31:08;;;;;;;3.05;2.58;;;21.60;53.30;;;;;;5094036;28;20080;-26
2023/12/01 11:33:39;;;;;;;2.90;2.47;;;22.00;63.00;;;;;;5092914;28;20097;-26
2023/12/01 11:36:26;;;;;;;2.50;2.22;;;21.70;43.00;;;;;;5092400;28;20052;-28
2023/12/01 11:39:29;;;;;;;2.83;2.40;;;21.70;43.00;;;;;;5071285;28;20456;-30
2023/12/01 11:41:56;;;;;;;3.38;2.40;;;21.60;45.20;;;;;;5039105;28;20059;-27
2023/12/01 11:44:26;;;;;;;2.75;2.33;;;23.10;63.20;;;;;;5070837;28;20416;-29
2023/12/01 11:46:55;;;;;;;3.10;2.47;;;21.80;43.00;;;;;;5071089;28;20044;-30
2023/12/01 11:49:24;;;;;;;3.20;2.30;;;21.80;43.00;;;;;;5071590;28;20049;-30
2023/12/01 11:51:51;;;;;;;2.70;2.33;;;;;;;;;;5072578;28;20072;-32
2023/12/01 11:54:19;;;;;;;2.55;2.35;;;22.80;63.00;;;;;;5072391;28;20045;-31
2023/12/01 11:56:50;;;;;;;2.47;2.08;;;21.50;63.20;;;;;;5072449;28;20056;-33
2023/12/01 11:59:16;;;;;;;3.55;2.25;;;21.50;63.10;;;;;;5072632;28;20044;-30
2023/12/01 12:01:45;;;;;;;2.60;2.35;;;21.80;43.00;;;;;;5073107;28;20117;-29
2023/12/01 12:04:16;;;;;;;2.42;1.90;;;;;;;;;;5072578;28;20048;-28
2023/12/01 12:06:43;;;;;;;2.13;1.92;;;22.30;63.60;;;;;;5072793;28;20132;-31
2023/12/01 12:09:10;;;;;;;3.47;2.78;;;20.90;46.40;;;;;;5074906;28;20044;-28
2023/12/01 12:11:37;;;;;;;3.53;2.40;;;21.80;57.60;;;;;;5083207;28;20507;-26
2023/12/01 12:14:04;;;;;;;2.78;2.20;;;21.80;43.00;;;;;;5082197;28;20055;-30
2023/12/01 12:16:31;;;;;;;2.30;2.00;;;22.10;63.50;;;;;;5077266;28;21598;-26
2023/12/01 12:19:00;;;;;;;3.13;2.47;;;21.30;46.30;;;;;;5078733;28;20085;-28
2023/12/01 12:21:27;;;;;;;2.88;2.38;;;22.60;63.10;;;;;;5082197;28;20072;-26
2023/12/01 12:23:54;;;;;;;3.90;2.40;;;21.60;62.70;;;;;;5080535;28;20044;-26
2023/12/01 12:26:23;;;;;;;2.30;2.03;;;21.90;62.40;;;;;;5080696;28;20055;-25
2023/12/01 12:28:52;;;;;;;2.45;2.10;;;21.70;62.50;;;;;;5071766;28;20510;-26
2023/12/01 12:31:19;;;;;;;2.60;2.17;;;21.90;62.20;;;;;;5071994;28;20448;-26
2023/12/01 12:33:47;;;;;;;2.60;2.13;;;22.30;63.50;;;;;;5080475;28;20048;-25
2023/12/01 12:36:16;;;;;;;2.20;1.88;;;21.90;43.00;;;;;;5083310;28;20404;-28
2023/12/01 12:38:43;;;;;;;2.17;1.90;;;21.20;42.60;;;;;;5081423;28;20497;-30
2023/12/01 12:41:23;;;;;;;2.47;2.28;;;21.90;62.40;;;;;;5082533;28;20052;-32
2023/12/01 12:43:52;;;;;;;2.72;2.22;;;21.80;62.00;;;;;;5079175;28;20127;-34
2023/12/01 12:46:19;;;;;;;2.75;2.28;;;;;;;;;;5083809;28;20430;-31
2023/12/01 12:48:46;;;;;;;4.07;2.10;;;21.30;62.00;;;;;;5080003;28;20122;-32
2023/12/01 12:51:14;;;;;;;2.50;1.98;;;22.20;43.70;;;;;;5064137;28;20440;-29
2023/12/01 12:53:43;;;;;;;2.63;2.10;;;22.00;43.10;;;;;;5080379;28;20154;-29
2023/12/01 12:56:12;;;;;;;4.38;1.95;;;21.20;57.60;;;;;;5077477;28;20463;-29
2023/12/01 12:58:39;;;;;;;2.83;2.10;;;21.70;63.10;;;;;;5081234;28;20076;-34
2023/12/01 13:01:06;;;;;;;2.95;2.00;;;21.90;62.70;;;;;;5091962;28;20056;-29
2023/12/01 13:03:33;;;;;;;2.22;1.90;;;;;;;;;;5074340;28;20107;-32
2023/12/01 13:06:01;;;;;;;3.03;2.25;;;22.10;63.10;;;;;;5071569;28;20109;-30
2023/12/01 13:08:28;;;;;;;3.00;2.20;;;22.20;55.70;;;;;;5083494;28;20051;-31
2023/12/01 13:10:56;;;;;;;3.08;2.30;;;22.10;62.80;;;;;;5091868;28;20048;-35
2023/12/01 13:13:23;;;;;;;3.55;2.17;;;;;;;;;;5089543;28;20044;-29